createdAt,value
2023-04-21T00:01:13.001Z,71.80
2023-04-21T00:03:42.030Z,71.80
2023-04-21T00:06:10.579Z,71.80
2023-04-21T00:08:40.414Z,71.80
2023-04-21T00:11:08.765Z,71.80
2023-04-21T00:13:37.179Z,71.80
2023-04-21T00:16:07.506Z,71.90
2023-04-21T00:18:35.603Z,71.90
2023-04-21T00:21:03.785Z,71.80
2023-04-21T00:23:31.892Z,71.80
2023-04-21T00:26:02.794Z,71.80
2023-04-21T00:28:31.296Z,71.90
2023-04-21T00:30:59.397Z,71.90
2023-04-21T00:33:28.850Z,71.80
2023-04-21T00:35:59.141Z,71.90
2023-04-21T00:38:27.244Z,71.80
2023-04-21T00:40:56.126Z,71.80
2023-04-21T00:43:25.796Z,71.80
2023-04-21T00:45:53.925Z,71.90
2023-04-21T00:48:22.012Z,71.90
2023-04-21T00:50:51.462Z,72.00
2023-04-21T00:53:21.138Z,72.20
2023-04-21T00:55:49.295Z,72.20
2023-04-21T00:58:17.386Z,72.20
2023-04-21T01:00:45.545Z,72.20
2023-04-21T01:03:13.899Z,72.30
2023-04-21T01:05:42.571Z,72.50
2023-04-21T01:08:12.078Z,72.60
2023-04-21T01:10:40.150Z,72.70
2023-04-21T01:13:08.231Z,72.70
2023-04-21T01:15:36.294Z,72.70
2023-04-21T01:18:04.602Z,72.70
2023-04-21T01:20:32.895Z,73.10
2023-04-21T01:23:02.318Z,73.30
2023-04-21T01:25:30.432Z,73.30
2023-04-21T01:27:58.517Z,73.30
2023-04-21T01:30:26.790Z,73.40
2023-04-21T01:32:54.964Z,73.40
2023-04-21T01:35:23.086Z,73.40
2023-04-21T01:37:51.135Z,73.50
2023-04-21T01:40:20.705Z,73.40
2023-04-21T01:42:49.014Z,73.50
2023-04-21T01:45:17.057Z,73.70
2023-04-21T01:47:45.104Z,73.70
2023-04-21T01:50:13.316Z,73.80
2023-04-21T01:52:42.312Z,74.00
2023-04-21T01:55:11.104Z,74.00
2023-04-21T01:57:40.606Z,74.00
2023-04-21T02:00:10.047Z,74.00
2023-04-21T02:02:38.208Z,74.00
2023-04-21T02:05:07.272Z,74.10
2023-04-21T02:07:35.376Z,74.20
2023-04-21T02:10:04.227Z,74.10
2023-04-21T02:12:32.391Z,74.20
2023-04-21T02:15:01.961Z,74.20
2023-04-21T02:17:30.126Z,74.40
2023-04-21T02:19:58.233Z,74.40
2023-04-21T02:22:26.360Z,74.50
2023-04-21T02:24:54.451Z,74.60
2023-04-21T02:27:22.495Z,74.70
2023-04-21T02:29:50.572Z,74.80
2023-04-21T02:32:25.570Z,74.70
2023-04-21T02:34:54.354Z,74.80
2023-04-21T02:37:23.374Z,74.70
2023-04-21T02:39:51.423Z,74.70
2023-04-21T02:42:19.524Z,74.70
2023-04-21T02:44:47.632Z,74.80
2023-04-21T02:47:17.484Z,74.80
2023-04-21T02:49:46.922Z,74.80
2023-04-21T02:52:15.024Z,74.80
2023-04-21T02:54:43.118Z,74.80
2023-04-21T02:57:11.192Z,74.90
2023-04-21T02:59:39.193Z,75.10
2023-04-21T03:02:07.302Z,75.00
2023-04-21T03:04:35.512Z,75.10
2023-04-21T03:07:04.968Z,75.10
2023-04-21T03:09:33.029Z,75.30
2023-04-21T03:12:01.641Z,75.30
2023-04-21T03:14:29.749Z,75.30
2023-04-21T03:16:57.917Z,75.40
2023-04-21T03:19:26.090Z,75.50
2023-04-21T03:21:54.186Z,75.50
2023-04-21T03:24:23.639Z,75.60
2023-04-21T03:26:51.701Z,75.80
2023-04-21T03:29:20.112Z,75.80
2023-04-21T03:31:48.301Z,75.80
2023-04-21T03:34:16.862Z,75.80
2023-04-21T03:36:45.032Z,75.90
2023-04-21T03:39:20.493Z,76.00
2023-04-21T03:41:50.257Z,75.90
2023-04-21T03:44:18.314Z,76.90
2023-04-21T03:46:46.343Z,75.90
2023-04-21T03:49:14.388Z,75.90
2023-04-21T03:51:42.490Z,76.00
2023-04-21T03:54:10.547Z,76.00
2023-04-21T03:56:38.628Z,76.10
2023-04-21T03:59:08.089Z,76.10
2023-04-21T04:01:36.398Z,75.90
2023-04-21T04:04:04.822Z,76.60
2023-04-21T04:06:33.326Z,75.80
2023-04-21T04:09:02.749Z,75.70
2023-04-21T04:11:30.837Z,75.60
2023-04-21T04:13:58.897Z,75.50
2023-04-21T04:16:29.349Z,75.40
2023-04-21T04:18:57.653Z,75.40
2023-04-21T04:21:25.736Z,75.40
2023-04-21T04:23:53.812Z,75.40
2023-04-21T04:26:22.734Z,75.60
2023-04-21T04:28:50.966Z,75.50
2023-04-21T04:31:19.538Z,75.50
2023-04-21T04:33:49.049Z,75.60
2023-04-21T04:36:17.134Z,75.60
2023-04-21T04:38:45.979Z,75.70
2023-04-21T04:41:15.893Z,75.70
2023-04-21T04:43:44.556Z,75.80
2023-04-21T04:46:13.142Z,75.90
2023-04-21T04:48:42.268Z,76.00
2023-04-21T04:51:11.675Z,76.10
2023-04-21T04:53:40.186Z,76.20
2023-04-21T04:56:08.348Z,76.20
2023-04-21T04:58:36.891Z,76.30
2023-04-21T05:01:14.087Z,76.30
2023-04-21T05:03:43.108Z,76.70
2023-04-21T05:06:14.551Z,76.50
2023-04-21T05:08:42.625Z,76.60
2023-04-21T05:11:11.154Z,76.70
2023-04-21T05:13:40.181Z,76.70
2023-04-21T05:16:10.582Z,76.00
2023-04-21T05:18:38.945Z,76.90
2023-04-21T05:21:07.712Z,76.90
2023-04-21T05:23:37.594Z,77.00
2023-04-21T05:26:05.697Z,77.20
2023-04-21T05:28:34.208Z,77.30
2023-04-21T05:31:02.235Z,77.40
2023-04-21T05:33:32.238Z,77.60
2023-04-21T05:36:00.347Z,77.70
2023-04-21T05:38:28.929Z,77.70
2023-04-21T05:40:58.860Z,77.90
2023-04-21T05:43:26.925Z,78.10
2023-04-21T05:45:55.527Z,78.20
2023-04-21T05:48:24.523Z,78.30
2023-04-21T05:50:53.172Z,78.30
2023-04-21T05:53:21.227Z,78.50
2023-04-21T05:55:49.295Z,78.70
2023-04-21T05:58:19.236Z,78.60
2023-04-21T06:00:49.242Z,78.70
2023-04-21T06:03:17.602Z,78.80
2023-04-21T06:05:46.355Z,78.80
2023-04-21T06:08:14.584Z,78.80
2023-04-21T06:10:43.184Z,78.90
2023-04-21T06:13:11.207Z,79.00
2023-04-21T06:15:41.090Z,78.80
2023-04-21T06:18:09.197Z,78.80
2023-04-21T06:20:37.386Z,78.90
2023-04-21T06:23:05.896Z,79.00
2023-04-21T06:25:34.113Z,78.80
2023-04-21T06:28:02.666Z,78.80
2023-04-21T06:30:30.732Z,78.70
2023-04-21T06:33:00.197Z,78.70
2023-04-21T06:35:28.304Z,78.50
2023-04-21T06:37:56.815Z,78.30
2023-04-21T06:40:24.886Z,78.30
2023-04-21T06:42:53.409Z,78.20
2023-04-21T06:45:21.624Z,78.30
2023-04-21T06:47:49.725Z,78.30
2023-04-21T06:50:19.363Z,78.20
2023-04-21T06:52:47.893Z,78.10
2023-04-21T06:55:15.977Z,77.60
2023-04-21T06:57:44.508Z,77.40
2023-04-21T07:00:14.338Z,77.30
2023-04-21T07:02:42.817Z,77.30
2023-04-21T07:05:11.649Z,77.10
2023-04-21T07:07:41.444Z,77.20
2023-04-21T07:10:11.076Z,77.30
2023-04-21T07:12:39.240Z,77.30
2023-04-21T07:15:08.887Z,77.00
2023-04-21T07:17:36.972Z,76.90
2023-04-21T07:20:05.668Z,76.80
2023-04-21T07:22:34.659Z,76.90
2023-04-21T07:25:06.297Z,76.50
2023-04-21T07:27:35.867Z,76.50
2023-04-21T07:30:04.075Z,76.60
2023-04-21T07:32:32.515Z,76.60
2023-04-21T07:35:02.028Z,76.40
2023-04-21T07:37:30.203Z,76.60
2023-04-21T07:39:58.269Z,76.50
2023-04-21T07:42:27.779Z,76.50
2023-04-21T07:44:57.472Z,76.70
2023-04-21T07:47:25.603Z,76.40
2023-04-21T07:49:53.787Z,76.30
2023-04-21T07:52:21.853Z,76.00
2023-04-21T07:54:50.675Z,76.10
2023-04-21T07:57:18.947Z,76.00
2023-04-21T07:59:48.427Z,75.80
2023-04-21T08:02:16.610Z,76.10
2023-04-21T08:04:44.905Z,76.00
2023-04-21T08:07:13.928Z,75.90
2023-04-21T08:09:42.136Z,75.70
2023-04-21T08:12:10.197Z,75.50
2023-04-21T08:14:38.276Z,75.20
2023-04-21T08:17:07.906Z,75.10
2023-04-21T08:19:35.941Z,75.00
2023-04-21T08:22:04.052Z,74.90
2023-04-21T08:24:32.084Z,75.60
2023-04-21T08:27:02.248Z,74.70
2023-04-21T08:29:30.666Z,74.50
2023-04-21T08:31:58.826Z,74.40
2023-04-21T08:34:28.558Z,74.20
2023-04-21T08:36:56.912Z,73.90
2023-04-21T08:39:25.082Z,73.90
2023-04-21T08:41:53.711Z,73.70
2023-04-21T08:44:22.448Z,73.60
2023-04-21T08:46:51.477Z,73.60
2023-04-21T08:49:22.056Z,73.50
2023-04-21T08:51:51.682Z,73.40
2023-04-21T08:54:19.776Z,73.60
2023-04-21T08:56:49.332Z,73.40
2023-04-21T08:59:17.624Z,73.40
2023-04-21T09:02:08.156Z,73.20
2023-04-21T09:04:36.756Z,72.80
2023-04-21T09:07:06.322Z,72.80
2023-04-21T09:09:34.380Z,72.70
2023-04-21T09:12:02.949Z,72.70
2023-04-21T09:14:33.823Z,72.80
2023-04-21T09:17:04.062Z,72.90
2023-04-21T09:19:35.399Z,72.90
2023-04-21T09:22:03.640Z,73.00
2023-04-21T09:24:33.081Z,72.90
2023-04-21T09:27:04.811Z,72.90
2023-04-21T09:29:33.008Z,72.90
2023-04-21T09:32:03.147Z,72.70
2023-04-21T09:34:32.034Z,72.50
2023-04-21T09:37:03.805Z,72.50
2023-04-21T09:39:46.398Z,72.50
2023-04-21T09:42:21.062Z,72.50
2023-04-21T09:44:53.856Z,72.40
2023-04-21T09:47:30.526Z,72.10
2023-04-21T09:49:59.667Z,71.80
2023-04-21T09:52:30.116Z,71.90
2023-04-21T09:55:04.296Z,71.60
2023-04-21T09:57:33.467Z,71.60
2023-04-21T10:00:05.240Z,71.50
2023-04-21T10:02:35.580Z,71.40
2023-04-21T10:05:05.435Z,71.40
2023-04-21T10:07:33.631Z,71.30
2023-04-21T10:10:04.496Z,71.20
2023-04-21T10:12:34.418Z,71.10
2023-04-21T10:15:06.517Z,71.10
2023-04-21T10:17:37.956Z,70.70
2023-04-21T10:20:09.767Z,70.50
2023-04-21T10:22:39.712Z,70.50
2023-04-21T10:25:10.573Z,70.40
2023-04-21T10:27:40.920Z,70.50
2023-04-21T10:30:22.537Z,70.50
2023-04-21T10:33:02.917Z,70.00
2023-04-21T10:36:09.765Z,70.20
2023-04-21T10:38:42.334Z,69.60
2023-04-21T10:41:28.154Z,69.90
2023-04-21T10:43:59.330Z,69.40
2023-04-21T10:46:34.615Z,69.50
2023-04-21T10:49:10.205Z,69.30
2023-04-21T10:52:07.196Z,69.10
2023-04-21T10:54:45.943Z,68.40
2023-04-21T10:57:17.787Z,68.70
2023-04-21T10:59:46.677Z,68.60
2023-04-21T11:02:17.052Z,68.40
2023-04-21T11:04:48.798Z,68.00
2023-04-21T11:07:19.501Z,67.30
2023-04-21T11:09:48.903Z,67.40
2023-04-21T11:12:19.684Z,67.10
2023-04-21T11:14:48.956Z,67.30
2023-04-21T11:17:18.094Z,66.50
2023-04-21T11:19:47.134Z,66.60
2023-04-21T11:22:15.236Z,66.50
2023-04-21T11:24:46.233Z,66.40
2023-04-21T11:27:15.290Z,66.30
2023-04-21T11:29:46.155Z,66.20
2023-04-21T11:32:15.183Z,65.40
2023-04-21T11:34:43.835Z,65.40
2023-04-21T11:37:16.378Z,65.30
2023-04-21T11:39:45.022Z,64.20
2023-04-21T11:42:13.309Z,64.40
2023-04-21T11:44:42.774Z,64.40
2023-04-21T11:47:16.484Z,64.10
2023-04-21T11:49:49.596Z,63.40
2023-04-21T11:52:28.013Z,62.90
2023-04-21T11:54:59.326Z,62.80
2023-04-21T11:57:29.036Z,63.10
2023-04-21T12:00:00.846Z,63.10
2023-04-21T12:02:32.059Z,62.70
2023-04-21T12:05:02.245Z,62.70
2023-04-21T12:07:34.260Z,62.70
2023-04-21T12:10:03.834Z,61.60
2023-04-21T12:12:35.351Z,61.60
2023-04-21T12:15:04.891Z,61.30
2023-04-21T12:17:39.713Z,61.40
2023-04-21T12:20:09.793Z,60.60
2023-04-21T12:22:37.997Z,60.80
2023-04-21T12:25:07.198Z,60.40
2023-04-21T12:27:35.357Z,60.10
2023-04-21T12:30:04.151Z,60.10
2023-04-21T12:32:32.323Z,59.90
2023-04-21T12:35:02.357Z,58.70
2023-04-21T12:37:30.484Z,59.00
2023-04-21T12:39:58.553Z,59.10
2023-04-21T12:42:26.729Z,58.70
2023-04-21T12:44:54.801Z,58.50
2023-04-21T12:47:22.902Z,58.20
2023-04-21T12:49:50.987Z,58.00
2023-04-21T12:52:20.440Z,57.00
2023-04-21T12:54:48.498Z,57.20
2023-04-21T12:57:16.929Z,57.10
2023-04-21T12:59:46.535Z,57.00
2023-04-21T13:02:17.918Z,57.10
2023-04-21T13:04:46.068Z,55.90
2023-04-21T13:07:16.136Z,56.20
2023-04-21T13:09:46.451Z,55.90
2023-04-21T13:12:14.527Z,53.90
2023-04-21T13:14:42.570Z,54.80
2023-04-21T13:17:11.368Z,53.80
2023-04-21T13:19:39.479Z,54.20
2023-04-21T13:22:07.638Z,54.10
2023-04-21T13:24:35.840Z,53.30
2023-04-21T13:27:05.558Z,53.30
2023-04-21T13:29:34.874Z,53.00
2023-04-21T13:32:03.120Z,52.40
2023-04-21T13:34:31.606Z,52.60
2023-04-21T13:36:59.932Z,52.80
2023-04-21T13:39:28.091Z,53.10
2023-04-21T13:41:56.740Z,52.10
2023-04-21T13:44:26.221Z,52.70
2023-04-21T13:46:54.386Z,51.70
2023-04-21T13:49:22.505Z,51.70
2023-04-21T13:51:50.612Z,51.80
2023-04-21T13:54:18.693Z,51.70
2023-04-21T13:56:46.781Z,51.30
2023-04-21T13:59:16.594Z,50.90
2023-04-21T14:01:46.098Z,50.90
2023-04-21T14:04:14.471Z,50.40
2023-04-21T14:06:42.720Z,50.30
2023-04-21T14:09:11.922Z,50.40
2023-04-21T14:11:39.988Z,50.50
2023-04-21T14:14:10.146Z,50.20
2023-04-21T14:16:39.099Z,50.30
2023-04-21T14:19:10.282Z,49.00
2023-04-21T14:21:38.369Z,49.30
2023-04-21T14:24:06.446Z,49.30
2023-04-21T14:26:34.517Z,48.30
2023-04-21T14:29:02.777Z,47.70
2023-04-21T14:31:30.920Z,48.00
2023-04-21T14:33:59.126Z,46.90
2023-04-21T14:36:28.678Z,46.80
2023-04-21T14:38:57.085Z,47.10
2023-04-21T14:41:25.185Z,46.80
2023-04-21T14:43:56.523Z,46.40
2023-04-21T14:46:25.001Z,46.40
2023-04-21T14:48:53.307Z,46.80
2023-04-21T14:51:21.785Z,46.50
2023-04-21T14:53:51.332Z,46.40
2023-04-21T14:56:19.871Z,45.90
2023-04-21T14:58:47.996Z,45.70
2023-04-21T15:01:16.256Z,45.70
2023-04-21T15:03:44.709Z,45.50
2023-04-21T15:06:12.933Z,45.00
2023-04-21T15:08:41.161Z,45.10
2023-04-21T15:11:10.705Z,44.50
2023-04-21T15:13:39.224Z,44.10
2023-04-21T15:16:07.815Z,43.70
2023-04-21T15:18:36.470Z,43.50
2023-04-21T15:21:05.232Z,43.20
2023-04-21T15:23:33.799Z,44.10
2023-04-21T15:26:02.430Z,43.30
2023-04-21T15:28:32.639Z,43.10
2023-04-21T15:31:00.761Z,41.80
2023-04-21T15:33:29.560Z,43.10
2023-04-21T15:35:57.604Z,42.20
2023-04-21T15:38:26.204Z,43.00
2023-04-21T15:43:27.916Z,42.30
2023-04-21T15:45:57.404Z,42.60
2023-04-21T15:48:26.099Z,42.60
2023-04-21T15:50:54.276Z,42.80
2023-04-21T15:53:22.355Z,42.20
2023-04-21T15:55:52.316Z,41.70
2023-04-21T15:58:22.261Z,42.20
2023-04-21T16:00:50.536Z,41.90
2023-04-21T16:03:20.288Z,41.80
2023-04-21T16:05:49.020Z,42.00
2023-04-21T16:08:17.688Z,42.10
2023-04-21T16:10:46.103Z,41.30
2023-04-21T16:13:14.689Z,41.20
2023-04-21T16:15:42.852Z,41.00
2023-04-21T16:18:11.778Z,41.30
2023-04-21T16:20:42.207Z,41.30
2023-04-21T16:23:10.680Z,40.90
2023-04-21T16:25:39.294Z,41.30
2023-04-21T16:28:07.926Z,41.30
2023-04-21T16:30:36.186Z,41.20
2023-04-21T16:33:04.802Z,41.30
2023-04-21T16:35:33.048Z,41.30
2023-04-21T16:38:03.054Z,41.50
2023-04-21T16:40:31.575Z,40.80
2023-04-21T16:42:59.779Z,41.00
2023-04-21T16:45:29.731Z,41.20
2023-04-21T16:47:58.273Z,41.50
2023-04-21T16:50:27.332Z,42.10
2023-04-21T16:52:55.509Z,42.30
2023-04-21T16:55:25.031Z,42.30
2023-04-21T16:57:53.670Z,43.30
2023-04-21T17:00:21.933Z,42.00
2023-04-21T17:02:50.554Z,42.20
2023-04-21T17:05:19.387Z,42.90
2023-04-21T17:07:48.148Z,42.20
2023-04-21T17:10:16.913Z,42.70
2023-04-21T17:12:46.408Z,42.70
2023-04-21T17:15:14.558Z,42.70
2023-04-21T17:17:44.832Z,42.50
2023-04-21T17:20:14.655Z,42.80
2023-04-21T17:22:43.252Z,43.30
2023-04-21T17:25:12.110Z,43.50
2023-04-21T17:27:40.885Z,43.70
2023-04-21T17:30:11.620Z,44.10
2023-04-21T17:32:41.324Z,45.00
2023-04-21T17:35:10.302Z,44.50
2023-04-21T17:37:38.661Z,44.10
2023-04-21T17:40:10.001Z,44.40
2023-04-21T17:42:38.147Z,44.80
2023-04-21T17:45:09.095Z,44.90
2023-04-21T17:47:38.584Z,44.70
2023-04-21T17:50:09.367Z,45.00
2023-04-21T17:52:37.428Z,44.60
2023-04-21T17:55:06.206Z,44.70
2023-04-21T17:57:34.288Z,45.40
2023-04-21T18:00:04.530Z,45.70
2023-04-21T18:02:32.723Z,45.00
2023-04-21T18:05:02.580Z,45.30
2023-04-21T18:07:30.942Z,45.70
2023-04-21T18:09:59.224Z,45.90
2023-04-21T18:12:27.352Z,45.80
2023-04-21T18:14:55.441Z,46.10
2023-04-21T18:17:24.215Z,46.40
2023-04-21T18:19:52.422Z,46.30
2023-04-21T18:22:22.308Z,46.30
2023-04-21T18:24:50.431Z,46.60
2023-04-21T18:27:18.444Z,46.80
2023-04-21T18:29:46.546Z,46.90
2023-04-21T18:32:14.625Z,47.00
2023-04-21T18:34:42.710Z,47.00
2023-04-21T18:37:10.858Z,46.80
2023-04-21T18:39:40.817Z,46.80
2023-04-21T18:42:08.948Z,47.10
2023-04-21T18:44:37.308Z,46.80
2023-04-21T18:47:05.819Z,46.80
2023-04-21T18:49:33.986Z,46.80
2023-04-21T18:52:02.190Z,46.70
2023-04-21T18:54:30.260Z,46.80
2023-04-21T18:56:59.752Z,47.10
2023-04-21T18:59:27.805Z,47.00
2023-04-21T19:01:56.015Z,47.20
2023-04-21T19:04:24.221Z,47.20
2023-04-21T19:06:52.378Z,47.20
2023-04-21T19:09:20.472Z,47.30
2023-04-21T19:11:48.679Z,47.80
2023-04-21T19:14:18.161Z,47.70
2023-04-21T19:16:47.535Z,47.80
2023-04-21T19:19:15.643Z,47.80
2023-04-21T19:21:43.704Z,47.80
2023-04-21T19:24:12.074Z,47.80
2023-04-21T19:26:40.278Z,47.90
2023-04-21T19:29:11.650Z,48.00
2023-04-21T19:31:41.587Z,48.10
2023-04-21T19:34:09.632Z,48.20
2023-04-21T19:36:38.019Z,48.30
2023-04-21T19:39:07.401Z,48.30
2023-04-21T19:41:38.849Z,48.50
2023-04-21T19:44:06.898Z,48.60
2023-04-21T19:46:35.118Z,48.70
2023-04-21T19:49:04.669Z,48.80
2023-04-21T19:51:32.766Z,48.80
2023-04-21T19:54:10.722Z,48.80
2023-04-21T19:56:39.920Z,49.20
2023-04-21T19:59:08.286Z,49.10
2023-04-21T20:01:36.620Z,49.20
2023-04-21T20:04:06.848Z,49.20
2023-04-21T20:06:35.519Z,49.20
2023-04-21T20:09:05.849Z,49.10
2023-04-21T20:11:34.096Z,49.10
2023-04-21T20:14:02.256Z,49.00
2023-04-21T20:16:30.619Z,49.10
2023-04-21T20:18:58.985Z,49.10
2023-04-21T20:21:28.871Z,49.20
2023-04-21T20:23:57.089Z,49.90
2023-04-21T20:26:25.184Z,49.10
2023-04-21T20:28:56.289Z,49.20
2023-04-21T20:31:25.553Z,49.50
2023-04-21T20:33:53.848Z,49.50
2023-04-21T20:36:22.067Z,49.30
2023-04-21T20:38:52.031Z,49.40
2023-04-21T20:41:23.804Z,49.50
2023-04-21T20:43:52.084Z,49.50
2023-04-21T20:46:20.635Z,50.30
2023-04-21T20:48:48.689Z,49.60
2023-04-21T20:51:17.225Z,49.50
2023-04-21T20:53:45.267Z,49.50
2023-04-21T20:56:15.191Z,49.50
2023-04-21T20:58:43.210Z,49.60
2023-04-21T21:01:11.370Z,49.80
2023-04-21T21:03:39.662Z,50.00
2023-04-21T21:06:08.436Z,50.90
2023-04-21T21:08:37.025Z,50.20
2023-04-21T21:11:05.707Z,50.30
2023-04-21T21:13:35.184Z,50.50
2023-04-21T21:16:03.912Z,50.60
2023-04-21T21:18:34.563Z,50.70
2023-04-21T21:21:03.179Z,50.80
2023-04-21T21:23:32.807Z,50.90
2023-04-21T21:26:01.514Z,51.10
2023-04-21T21:28:30.405Z,51.20
2023-04-21T21:30:59.884Z,51.20
2023-04-21T21:33:27.993Z,51.30
2023-04-21T21:35:56.074Z,51.40
2023-04-21T21:38:24.656Z,51.50
2023-04-21T21:40:53.209Z,51.60
2023-04-21T21:43:21.303Z,51.60
2023-04-21T21:45:49.949Z,51.80
2023-04-21T21:48:19.954Z,51.90
2023-04-21T21:50:48.489Z,52.20
2023-04-21T21:53:16.535Z,52.90
2023-04-21T21:55:45.104Z,52.30
2023-04-21T21:58:13.649Z,52.40
2023-04-21T22:00:42.992Z,52.50
2023-04-21T22:03:12.081Z,52.60
2023-04-21T22:05:41.668Z,52.70
2023-04-21T22:08:10.215Z,52.80
2023-04-21T22:10:38.731Z,52.80
2023-04-21T22:13:07.272Z,52.80
2023-04-21T22:15:37.097Z,52.90
2023-04-21T22:18:07.146Z,52.90
2023-04-21T22:20:36.130Z,53.00
2023-04-21T22:23:06.674Z,53.10
2023-04-21T22:25:34.739Z,53.20
2023-04-21T22:28:03.325Z,53.30
2023-04-21T22:30:31.727Z,53.30
2023-04-21T22:33:00.441Z,53.40
2023-04-21T22:35:28.499Z,53.60
2023-04-21T22:37:57.062Z,53.60
2023-04-21T22:40:27.047Z,53.70
2023-04-21T22:42:55.144Z,53.80
2023-04-21T22:45:23.286Z,54.00
2023-04-21T22:47:51.431Z,54.00
2023-04-21T22:50:20.530Z,54.10
2023-04-21T22:52:49.047Z,54.30
2023-04-21T22:55:17.250Z,54.30
2023-04-21T22:57:46.755Z,54.50
2023-04-21T23:00:16.069Z,54.50
2023-04-21T23:02:44.178Z,54.50
2023-04-21T23:05:12.893Z,54.60
2023-04-21T23:07:41.453Z,54.60
2023-04-21T23:10:10.407Z,54.60
2023-04-21T23:12:39.037Z,54.80
2023-04-21T23:15:09.816Z,54.70
2023-04-21T23:17:38.390Z,54.90
2023-04-21T23:20:08.851Z,54.90
2023-04-21T23:22:37.477Z,54.80
2023-04-21T23:25:06.233Z,54.80
2023-04-21T23:27:34.786Z,54.90
2023-04-21T23:30:02.931Z,54.90
2023-04-21T23:32:32.867Z,55.00
2023-04-21T23:35:01.512Z,55.10
2023-04-21T23:37:29.557Z,55.10
2023-04-21T23:39:58.146Z,55.10
2023-04-21T23:42:26.736Z,55.10
2023-04-21T23:44:54.904Z,55.20
2023-04-21T23:47:23.468Z,55.30
2023-04-21T23:49:52.861Z,55.20
2023-04-21T23:52:21.404Z,55.30
2023-04-21T23:54:49.496Z,55.20
2023-04-21T23:57:17.530Z,55.30
2023-04-21T23:59:45.906Z,55.40
